x

Buoy F01 - West Penobscot Bay (44033) Wave Buoy

1:04pm - Sat 13th Feb 2016 All times are EST. -5 hours from GMT.

  • Sig Wave height 2.6ft
  • Peak Period 3s
  • Wind
    27mph, 34mph gusts
  • Sea Temp 38°f
  • 空気 Temp 19°f
  • Sea Pressure 1004.8mb
  • Buoy F01 - West Penobscot Bay
  • Buoy F01 - West Penobscot Bay

More Historic Weather Station data

Upgrade to MSW Pro to gain access to the past 30 days of data for over 8000 Wavebouys and Weather Stations around the globe.

Join Pro

Comparision Forecast

View Surf forecast
   
Sat 02/13 1:04pm 2.5ft 3s 27 34 mph 1004.8mb 38f 19f
12:04pm 2.5ft 5s 25 34 mph 1004.6mb 37f 20f
11:04am 2.5ft 5s 18 29 mph 1005.3mb 37f 20f
10:04am 2ft 5s 16 18 mph 1005.4mb 37f 20f
9:04am 2.5ft 4s 18 27 mph 1005.9mb 37f 21f
8:04am 2ft 3s 25 31 mph 1006.3mb 37f 21f
7:04am 2ft 3s 20 27 mph 1006.4mb 37f 22f
6:04am 1.6ft 3s 20 29 mph 1006.8mb 37f 23f
5:04am 1.3ft 2s 25 29 mph 1007.4mb 36f 22f
4:04am 1.6ft 11s 25 27 mph 1007.9mb 36f 21f
3:04am 1ft 8s 20 25 mph 1008.7mb 37f 21f
2:04am 1.3ft 11s 11 20 mph 1009.8mb 37f 20f
1:04am 1ft 8s 13 22 mph 1011.1mb 37f 20f
12:04am 1.3ft 8s 16 22 mph 1011.8mb 37f 21f
Fri 02/12 11:04pm 1.3ft 8s 7 9 mph 1012.1mb 37f 21f
10:04pm 1ft 3s 9 11 mph 1012.7mb 37f 24f
9:04pm 1ft 5s 2 4 mph 1013.9mb 36f 23f
8:04pm 1.3ft 11s 4 7 mph 1015.3mb 37f 22f
7:04pm 1.3ft 4s 9 11 mph 1015.9mb 37f 21f
6:04pm 1.6ft 11s 13 22 mph 1016.2mb 37f 20f
5:04pm 1.3ft 11s 11 16 mph 1016mb 37f 20f
4:04pm 1.3ft 11s 9 13 mph 1016.1mb 37f 19f
3:04pm 1.3ft 11s 9 11 mph 1015.9mb 37f 19f
2:04pm 1ft 8s 11 16 mph 1015.9mb 38f 16f
1:04pm 1.6ft 11s 13 18 mph 1016.6mb 38f 14f
12:04pm 1.6ft 16s 18 25 mph 1017.5mb 38f 12f
11:04am 1.3ft 11s 13 25 mph 1018.3mb 37f 11f
10:04am 1ft 2s 16 20 mph 1018.1mb 37f 9f
9:04am  -   -  16 18 mph 1018.8mb 37f 6f
8:04am 1ft 6s 16 20 mph 1018.6mb 37f 5f
7:04am 1.6ft 11s 18 22 mph 1018mb 37f 5f
6:04am 1.6ft 11s 13 20 mph 1017.2mb 37f 4f
5:04am 1.3ft 6s 18 25 mph 1016mb 37f 6f
4:04am 1.3ft 6s 16 22 mph 1015.1mb 38f 5f
3:04am 1.6ft 6s 18 25 mph 1013.8mb 38f 6f
2:04am 1.6ft 2s 20 29 mph 1013mb 38f 8f
1:04am 1.6ft 3s 22 29 mph 1012mb 38f 9f
12:04am 2ft 3s 20 25 mph 1010.9mb 38f 12f
Thu 02/11 10:04pm 2ft 4s 31 43 mph 1008.5mb 38f 17f
9:04pm 2.5ft 3s 25 36 mph 1007.3mb 38f 20f
8:04pm 2.5ft 3s 31 38 mph 1006.4mb 38f 22f
7:04pm 2ft 3s 29 36 mph 1005.2mb 38f 24f
6:04pm 2.5ft 11s 25 36 mph 1004mb 38f 26f
5:04pm 2.5ft 11s 13 18 mph 1003mb 38f 28f
4:04pm 1.6ft 11s 9 13 mph 1002.4mb 38f 28f
3:04pm 2ft 11s 9 13 mph 1001.9mb 38f 28f
2:04pm 1.6ft 8s 7 11 mph 1001.2mb 38f 29f
1:04pm 2ft 11s 9 11 mph 1001.3mb 38f 28f
12:04pm 2ft 11s 4 9 mph 1001.6mb 38f 28f
11:04am 2ft 11s 9 13 mph 1002.4mb 38f 27f
10:04am 1ft 3s 13 16 mph 1002.6mb 38f 26f
9:04am 1.3ft 3s 16 20 mph 1002.5mb 38f 27f
8:04am 2.5ft 11s 16 20 mph 1002.1mb 38f 27f
7:04am 1.6ft 3s 18 20 mph 1001.7mb 38f 27f
6:04am 1.6ft 3s 16 20 mph 1001.2mb 38f 28f
5:04am 3ft 11s 16 20 mph 1000.6mb 38f 30f
4:04am 2.5ft 11s 13 16 mph 1000.1mb 38f 30f
3:04am 1.6ft 11s 11 16 mph 999mb 38f 31f
2:04am 2ft 11s 9 11 mph 999mb 38f 30f
1:04am 2ft 11s 9 11 mph 998.9mb 38f 32f
12:04am 2ft 11s 4 7 mph 999.2mb 38f 33f
Wed 02/10 11:04pm 1.6ft 8s 2
mph
999.4mb 38f 33f
10:04pm 2ft 11s 2 4 mph 999.4mb 38f 33f
9:04pm 2ft 11s 2 4 mph 999.8mb 38f 33f
7:04pm 2ft 11s 2 4 mph 1000.4mb 38f 33f
6:04pm 2.5ft 11s 4
mph
1000.5mb 38f 33f
5:04pm 2ft 11s 2 4 mph 1000.1mb 38f 32f
4:04pm 2.5ft 11s  -  2 mph 999.8mb 38f 32f
3:04pm 2ft 11s 2 4 mph 999.5mb 38f 31f
2:04pm 1.6ft 11s 4 7 mph 999.4mb 38f 31f
1:04pm 1.6ft 11s 7 9 mph 999.6mb 38f 31f
12:04pm 1.6ft 11s 2 4 mph 1000.3mb 38f 31f
11:04am 1.6ft 11s 2 4 mph 1001.1mb 38f 30f
10:04am 1.6ft 6s 2 4 mph 1001.7mb 38f 28f
9:04am 1.3ft 8s 2 4 mph 1002.2mb 38f 27f
8:04am 1.6ft 11s 4 7 mph 1002.2mb 38f 27f
7:04am 1.6ft 8s 2 4 mph 1002.1mb 38f 24f
6:04am 2ft 8s 2 4 mph 1001.8mb 38f 23f
5:04am 2ft 11s 4 7 mph 1001.2mb 38f 23f
4:04am 2.5ft 11s 7 9 mph 1001.3mb 38f 22f
3:04am 2.5ft 11s 9 11 mph 1001.4mb 38f 22f
2:04am 2.5ft 11s 9 11 mph 1001.3mb 38f 22f
1:04am 2.5ft 11s 22 25 mph 1000.7mb 38f 23f
12:04am 2.5ft 11s 18 22 mph 1000.5mb 38f 23f
Tue 02/09 11:04pm 2.5ft 11s 11 16 mph 1000.9mb 38f 23f
10:04pm 1ft 3s 11 16 mph 1000.7mb 38f 24f
9:04pm  -   -  13 18 mph 1000.6mb 38f 24f
8:04pm 3ft 11s 11 20 mph 1001.2mb 38f 24f